createdAt,value
2022-10-30T00:02:13.615Z,101405.72
2022-10-30T00:04:40.179Z,101400.44
2022-10-30T00:07:06.668Z,101406.59
2022-10-30T00:09:33.160Z,101393.44
2022-10-30T00:11:59.815Z,101391.72
2022-10-30T00:14:26.279Z,101392.56
2022-10-30T00:16:52.714Z,101396.94
2022-10-30T00:19:19.278Z,101389.97
2022-10-30T00:21:45.710Z,101391.72
2022-10-30T00:24:12.227Z,101377.66
2022-10-30T00:26:38.671Z,101377.66
2022-10-30T00:29:05.128Z,101375.03
2022-10-30T00:31:31.631Z,101368.03
2022-10-30T00:33:58.133Z,101375.91
2022-10-30T00:36:25.055Z,101368.03
2022-10-30T00:38:51.572Z,101378.56
2022-10-30T00:41:21.172Z,101377.66
2022-10-30T00:43:48.040Z,101372.44
2022-10-30T00:46:31.685Z,101377.66
2022-10-30T00:49:17.215Z,101380.28
2022-10-30T00:51:50.097Z,101390.81
2022-10-30T00:54:18.161Z,101385.56
2022-10-30T00:56:46.498Z,101391.69
2022-10-30T00:59:17.253Z,101393.44
2022-10-30T01:01:45.364Z,101383.81
2022-10-30T01:04:12.945Z,101385.56
2022-10-30T01:06:41.940Z,101384.69
2022-10-30T01:09:08.772Z,101383.78
2022-10-30T01:11:35.254Z,101389.06
2022-10-30T01:14:05.307Z,101385.56
2022-10-30T01:16:44.592Z,101388.19
2022-10-30T01:19:38.586Z,101384.69
2022-10-30T01:22:14.100Z,101382.03
2022-10-30T01:24:58.125Z,101375.91
2022-10-30T01:27:53.247Z,101376.78
2022-10-30T01:30:48.694Z,101361.88
2022-10-30T01:33:51.329Z,101363.63
2022-10-30T01:36:28.417Z,101363.59
2022-10-30T01:38:58.697Z,101365.34
2022-10-30T01:41:25.395Z,101360.97
2022-10-30T01:43:55.847Z,101361.88
2022-10-30T01:46:42.245Z,101362.69
2022-10-30T01:49:46.389Z,101355.72
2022-10-30T01:52:19.751Z,101353.09
2022-10-30T01:55:13.798Z,101351.38
2022-10-30T01:57:57.578Z,101349.59
2022-10-30T02:00:24.110Z,101347.00
2022-10-30T02:02:52.281Z,101353.97
2022-10-30T02:05:40.165Z,101348.75
2022-10-30T02:08:07.533Z,101339.09
2022-10-30T02:10:35.792Z,101341.75
2022-10-30T02:13:02.424Z,101336.50
2022-10-30T02:15:29.405Z,101342.63
2022-10-30T02:17:56.810Z,101342.63
2022-10-30T02:20:24.519Z,101342.63
2022-10-30T02:22:54.466Z,101339.97
2022-10-30T02:25:24.763Z,101333.88
2022-10-30T02:27:51.213Z,101328.59
2022-10-30T02:30:17.782Z,101333.00
2022-10-30T02:32:44.309Z,101340.84
2022-10-30T02:35:11.021Z,101334.69
2022-10-30T02:37:37.465Z,101335.59
2022-10-30T02:40:04.480Z,101328.59
2022-10-30T02:42:30.915Z,101334.72
2022-10-30T02:44:57.429Z,101332.09
2022-10-30T02:47:23.861Z,101326.81
2022-10-30T02:49:50.345Z,101335.59
2022-10-30T02:52:16.779Z,101333.84
2022-10-30T02:54:43.221Z,101325.97
2022-10-30T02:57:10.349Z,101327.72
2022-10-30T02:59:36.856Z,101325.09
2022-10-30T03:02:03.405Z,101339.13
2022-10-30T03:04:29.953Z,101338.22
2022-10-30T03:06:56.386Z,101345.19
2022-10-30T03:09:22.905Z,101345.19
2022-10-30T03:11:49.375Z,101341.63
2022-10-30T03:14:15.951Z,101339.88
2022-10-30T03:16:42.403Z,101336.47
2022-10-30T03:19:09.639Z,101349.50
2022-10-30T03:21:36.153Z,101353.06
2022-10-30T03:24:02.640Z,101344.25
2022-10-30T03:26:29.151Z,101352.22
2022-10-30T03:28:55.605Z,101346.09
2022-10-30T03:31:22.735Z,101346.84
2022-10-30T03:33:49.181Z,101348.53
2022-10-30T03:36:16.004Z,101351.22
2022-10-30T03:38:42.897Z,101345.97
2022-10-30T03:41:09.477Z,101350.31
2022-10-30T03:43:35.956Z,101342.47
2022-10-30T03:46:02.480Z,101337.19
2022-10-30T03:48:29.501Z,101333.69
2022-10-30T03:50:57.471Z,101344.22
2022-10-30T03:53:26.265Z,101343.31
2022-10-30T03:55:53.534Z,101347.72
2022-10-30T03:58:20.014Z,101340.69
2022-10-30T04:00:46.553Z,101342.44
2022-10-30T04:03:12.988Z,101342.50
2022-10-30T04:05:39.595Z,101346.91
2022-10-30T04:08:09.678Z,101349.47
2022-10-30T04:10:36.245Z,101358.31
2022-10-30T04:13:04.825Z,101358.25
2022-10-30T04:15:31.570Z,101352.09
2022-10-30T04:17:58.328Z,101348.63
2022-10-30T04:20:26.139Z,101347.69
2022-10-30T04:22:57.468Z,101344.19
2022-10-30T04:25:24.133Z,101336.31
2022-10-30T04:27:52.524Z,101342.44
2022-10-30T04:30:24.125Z,101335.38
2022-10-30T04:32:52.554Z,101335.44
2022-10-30T04:35:20.852Z,101324.91
2022-10-30T04:38:01.492Z,101329.28
2022-10-30T04:40:29.952Z,101325.78
2022-10-30T04:42:57.223Z,101320.53
2022-10-30T04:45:24.098Z,101321.38
2022-10-30T04:47:50.842Z,101313.53
2022-10-30T04:50:17.948Z,101320.47
2022-10-30T04:52:44.831Z,101315.16
2022-10-30T04:55:11.666Z,101329.25
2022-10-30T04:57:38.400Z,101320.44
2022-10-30T05:00:06.314Z,101330.03
2022-10-30T05:02:35.085Z,101333.56
2022-10-30T05:05:01.739Z,101346.63
2022-10-30T05:07:28.193Z,101348.31
2022-10-30T05:09:54.643Z,101351.00
2022-10-30T05:12:22.232Z,101340.44
2022-10-30T05:14:48.690Z,101342.94
2022-10-30T05:17:15.139Z,101351.72
2022-10-30T05:19:41.592Z,101344.75
2022-10-30T05:22:09.269Z,101341.25
2022-10-30T05:24:35.801Z,101344.44
2022-10-30T05:27:02.372Z,101345.41
2022-10-30T05:29:28.805Z,101344.59
2022-10-30T05:31:55.280Z,101347.09
2022-10-30T05:34:21.753Z,101351.47
2022-10-30T05:36:48.254Z,101341.06
2022-10-30T05:39:14.709Z,101346.13
2022-10-30T05:46:57.375Z,101353.19
2022-10-30T05:49:23.817Z,101360.00
2022-10-30T05:51:50.323Z,101348.78
2022-10-30T05:54:16.746Z,101358.19
2022-10-30T05:56:43.212Z,101354.81
2022-10-30T05:59:09.798Z,101356.63
2022-10-30T06:01:36.324Z,101356.63
2022-10-30T06:04:02.891Z,101351.38
2022-10-30T06:06:29.364Z,101358.38
2022-10-30T06:08:55.968Z,101360.97
2022-10-30T06:11:22.478Z,101360.09
2022-10-30T06:13:49.114Z,101368.88
2022-10-30T06:16:15.609Z,101359.31
2022-10-30T06:18:42.069Z,101365.34
2022-10-30T06:21:08.542Z,101361.97
2022-10-30T06:23:35.012Z,101369.91
2022-10-30T06:26:01.468Z,101360.31
2022-10-30T06:28:27.921Z,101364.78
2022-10-30T06:30:55.197Z,101366.25
2022-10-30T06:33:21.699Z,101376.03
2022-10-30T06:35:49.371Z,101353.31
2022-10-30T06:38:17.103Z,101360.59
2022-10-30T06:40:43.577Z,101366.75
2022-10-30T06:43:10.010Z,101368.47
2022-10-30T06:45:36.444Z,101369.41
2022-10-30T06:48:03.136Z,101366.78
2022-10-30T06:50:29.761Z,101355.47
2022-10-30T06:52:56.257Z,101360.72
2022-10-30T06:55:22.883Z,101380.97
2022-10-30T06:57:57.122Z,101378.31
2022-10-30T07:00:23.932Z,101374.88
2022-10-30T07:03:01.178Z,101373.16
2022-10-30T07:05:28.127Z,101375.75
2022-10-30T07:07:56.702Z,101372.25
2022-10-30T07:10:23.169Z,101386.22
2022-10-30T07:12:54.220Z,101376.63
2022-10-30T07:15:20.671Z,101382.75
2022-10-30T07:17:55.323Z,101384.59
2022-10-30T07:20:22.318Z,101387.22
2022-10-30T07:22:48.789Z,101382.81
2022-10-30T07:25:15.472Z,101380.97
2022-10-30T07:27:43.733Z,101388.13
2022-10-30T07:30:14.335Z,101386.34
2022-10-30T07:32:41.089Z,101388.97
2022-10-30T07:35:08.717Z,101393.38
2022-10-30T07:37:35.233Z,101391.63
2022-10-30T07:40:01.921Z,101389.91
2022-10-30T07:42:28.389Z,101396.06
2022-10-30T07:44:54.957Z,101390.81
2022-10-30T07:47:21.528Z,101396.94
2022-10-30T07:49:48.043Z,101400.47
2022-10-30T07:52:17.172Z,101403.09
2022-10-30T07:54:43.913Z,101393.44
2022-10-30T07:57:10.367Z,101397.81
2022-10-30T07:59:36.831Z,101402.22
2022-10-30T08:02:03.459Z,101394.34
2022-10-30T08:04:29.970Z,101393.47
2022-10-30T08:06:56.437Z,101396.97
2022-10-30T08:09:22.877Z,101396.91
2022-10-30T08:11:49.332Z,101388.19
2022-10-30T08:14:15.776Z,101402.22
2022-10-30T08:16:42.222Z,101395.19
2022-10-30T08:19:08.658Z,101395.91
2022-10-30T08:21:35.145Z,101398.66
2022-10-30T08:24:01.584Z,101395.97
2022-10-30T08:26:28.091Z,101390.63
2022-10-30T08:28:54.561Z,101398.53
2022-10-30T08:31:21.062Z,101409.09
2022-10-30T08:33:47.493Z,101400.31
2022-10-30T08:36:13.961Z,101402.94
2022-10-30T08:38:40.411Z,101402.00
2022-10-30T08:41:06.955Z,101402.00
2022-10-30T08:43:33.528Z,101399.38
2022-10-30T08:46:00.007Z,101398.53
2022-10-30T08:48:26.460Z,101405.53
2022-10-30T08:50:52.961Z,101399.16
2022-10-30T08:53:20.471Z,101408.03
2022-10-30T08:55:47.416Z,101403.56
2022-10-30T08:58:14.406Z,101399.84
2022-10-30T09:00:40.908Z,101410.47
2022-10-30T09:03:07.527Z,101412.44
2022-10-30T09:05:34.098Z,101408.72
2022-10-30T09:08:01.536Z,101415.94
2022-10-30T09:10:29.222Z,101408.94
2022-10-30T09:12:59.044Z,101410.56
2022-10-30T09:15:26.593Z,101407.69
2022-10-30T09:18:01.720Z,101413.00
2022-10-30T09:20:29.327Z,101413.13
2022-10-30T09:22:56.493Z,101417.56
2022-10-30T09:25:23.186Z,101403.50
2022-10-30T09:27:49.686Z,101408.53
2022-10-30T09:30:16.289Z,101408.72
2022-10-30T09:32:42.749Z,101413.66
2022-10-30T09:35:09.365Z,101412.94
2022-10-30T09:37:36.886Z,101425.00
2022-10-30T09:40:05.200Z,101420.53
2022-10-30T09:42:43.456Z,101424.84
2022-10-30T09:45:34.254Z,101422.97
2022-10-30T09:48:16.271Z,101423.66
2022-10-30T09:50:57.818Z,101425.31
2022-10-30T09:53:42.229Z,101428.78
2022-10-30T09:56:13.432Z,101431.06
2022-10-30T09:58:45.371Z,101436.22
2022-10-30T10:01:39.151Z,101431.34
2022-10-30T10:04:44.034Z,101434.19
2022-10-30T10:07:20.398Z,101433.81
2022-10-30T10:09:48.209Z,101427.38
2022-10-30T10:13:00.123Z,101436.66
2022-10-30T10:15:50.148Z,101427.13
2022-10-30T10:18:20.514Z,101428.66
2022-10-30T10:20:49.377Z,101431.69
2022-10-30T10:23:38.694Z,101424.31
2022-10-30T10:26:21.720Z,101425.94
2022-10-30T10:28:56.934Z,101418.50
2022-10-30T10:31:36.698Z,101425.81
2022-10-30T10:34:19.236Z,101420.78
2022-10-30T10:37:03.638Z,101417.59
2022-10-30T10:39:56.285Z,101421.31
2022-10-30T10:42:48.515Z,101422.81
2022-10-30T10:45:17.907Z,101422.63
2022-10-30T10:48:18.487Z,101426.25
2022-10-30T10:50:49.154Z,101421.84
2022-10-30T10:53:31.155Z,101421.78
2022-10-30T10:55:59.948Z,101420.66
2022-10-30T10:58:43.750Z,101409.88
2022-10-30T11:01:23.684Z,101411.66
2022-10-30T11:04:15.860Z,101411.00
2022-10-30T11:06:44.175Z,101419.13
2022-10-30T11:09:21.652Z,101413.09
2022-10-30T11:11:48.985Z,101413.66
2022-10-30T11:14:44.029Z,101406.28
2022-10-30T11:17:20.978Z,101415.38
2022-10-30T11:19:52.004Z,101405.03
2022-10-30T11:22:26.010Z,101415.28
2022-10-30T11:24:52.459Z,101412.22
2022-10-30T11:27:30.987Z,101410.72
2022-10-30T11:30:05.876Z,101416.69
2022-10-30T11:32:33.856Z,101417.91
2022-10-30T11:35:16.166Z,101413.66
2022-10-30T11:37:43.862Z,101411.53
2022-10-30T11:40:13.388Z,101420.53
2022-10-30T11:42:44.238Z,101407.75
2022-10-30T11:45:19.808Z,101413.53
2022-10-30T11:47:46.864Z,101407.56
2022-10-30T11:52:41.584Z,101414.38
2022-10-30T11:55:23.477Z,101416.28
2022-10-30T11:57:56.851Z,101416.75
2022-10-30T12:00:26.647Z,101407.81
2022-10-30T12:02:56.266Z,101415.28
2022-10-30T12:05:26.005Z,101419.97
2022-10-30T12:07:53.624Z,101426.56
2022-10-30T12:10:30.440Z,101428.31
2022-10-30T12:12:57.233Z,101430.53
2022-10-30T12:15:27.602Z,101431.31
2022-10-30T12:17:56.014Z,101436.56
2022-10-30T12:20:22.546Z,101429.38
2022-10-30T12:22:49.301Z,101428.25
2022-10-30T12:25:31.443Z,101426.91
2022-10-30T12:28:08.186Z,101427.22
2022-10-30T12:30:42.865Z,101420.44
2022-10-30T12:33:16.339Z,101415.94
2022-10-30T12:35:58.091Z,101416.19
2022-10-30T12:38:33.227Z,101414.03
2022-10-30T12:41:25.681Z,101407.91
2022-10-30T12:44:04.862Z,101409.53
2022-10-30T12:46:42.535Z,101409.88
2022-10-30T12:49:15.825Z,101406.00
2022-10-30T12:52:08.363Z,101406.59
2022-10-30T12:54:50.054Z,101414.41
2022-10-30T12:57:25.353Z,101409.34
2022-10-30T12:59:57.657Z,101408.50
2022-10-30T13:02:30.355Z,101407.84
2022-10-30T13:05:04.761Z,101410.81
2022-10-30T13:07:43.957Z,101402.28
2022-10-30T13:10:28.449Z,101409.59
2022-10-30T13:13:01.965Z,101404.88
2022-10-30T13:15:32.392Z,101405.72
2022-10-30T13:18:00.913Z,101406.75
2022-10-30T13:20:28.936Z,101402.69
2022-10-30T13:23:05.492Z,101397.59
2022-10-30T13:25:36.777Z,101397.84
2022-10-30T13:28:20.987Z,101396.00
2022-10-30T13:31:01.015Z,101400.84
2022-10-30T13:33:35.720Z,101401.22
2022-10-30T13:36:10.968Z,101397.44
2022-10-30T13:39:00.717Z,101401.16
2022-10-30T13:41:45.972Z,101398.34
2022-10-30T13:44:33.906Z,101401.31
2022-10-30T13:47:17.452Z,101404.34
2022-10-30T13:50:03.242Z,101411.38
2022-10-30T13:52:31.581Z,101406.16
2022-10-30T13:55:02.796Z,101405.91
2022-10-30T13:57:42.631Z,101395.88
2022-10-30T14:00:20.397Z,101391.88
2022-10-30T14:02:59.434Z,101390.84
2022-10-30T14:05:56.630Z,101384.09
2022-10-30T14:08:43.657Z,101388.97
2022-10-30T14:11:12.658Z,101386.22
2022-10-30T14:13:46.572Z,101384.25
2022-10-30T14:16:42.084Z,101392.31
2022-10-30T14:19:13.750Z,101391.81
2022-10-30T14:21:53.975Z,101403.88
2022-10-30T14:24:32.502Z,101409.75
2022-10-30T14:27:05.140Z,101402.13
2022-10-30T14:29:34.736Z,101413.19
2022-10-30T14:32:13.283Z,101416.34
2022-10-30T14:35:00.124Z,101410.16
2022-10-30T14:37:31.185Z,101404.41
2022-10-30T14:39:58.576Z,101408.09
2022-10-30T14:42:42.209Z,101401.75
2022-10-30T14:45:13.495Z,101411.38
2022-10-30T14:47:51.275Z,101407.66
2022-10-30T14:50:26.837Z,101412.09
2022-10-30T14:53:05.048Z,101413.34
2022-10-30T14:55:52.780Z,101419.31
2022-10-30T14:58:27.075Z,101419.31
2022-10-30T15:01:21.523Z,101415.75
2022-10-30T15:03:57.116Z,101424.63
2022-10-30T15:06:42.187Z,101422.44
2022-10-30T15:09:26.997Z,101416.50
2022-10-30T15:12:07.723Z,101409.41
2022-10-30T15:14:53.679Z,101416.72
2022-10-30T15:17:26.603Z,101410.50
2022-10-30T15:19:53.097Z,101407.94
2022-10-30T15:22:21.108Z,101408.91
2022-10-30T15:24:48.445Z,101409.06
2022-10-30T15:27:19.886Z,101401.16
2022-10-30T15:29:54.546Z,101407.38
2022-10-30T15:32:23.072Z,101408.25
2022-10-30T15:35:00.812Z,101412.81
2022-10-30T15:37:27.778Z,101412.91
2022-10-30T15:40:19.968Z,101413.91
2022-10-30T15:42:47.927Z,101402.25
2022-10-30T15:45:20.219Z,101410.41
2022-10-30T15:47:48.959Z,101404.38
2022-10-30T15:50:16.701Z,101396.53
2022-10-30T15:52:43.950Z,101391.34
2022-10-30T15:55:16.172Z,101394.97
2022-10-30T15:58:13.086Z,101398.53
2022-10-30T16:00:37.197Z,101411.00
2022-10-30T16:03:11.759Z,101408.47
2022-10-30T16:05:38.263Z,101415.59
2022-10-30T16:08:12.583Z,101415.91
2022-10-30T16:10:41.760Z,101414.09
2022-10-30T16:13:15.283Z,101412.41
2022-10-30T16:15:41.809Z,101411.50
2022-10-30T16:18:21.540Z,101417.59
2022-10-30T16:20:53.523Z,101431.06
2022-10-30T16:23:20.674Z,101418.72
2022-10-30T16:25:48.116Z,101421.56
2022-10-30T16:28:47.149Z,101418.09
2022-10-30T16:31:16.063Z,101422.50
2022-10-30T16:33:44.584Z,101422.59
2022-10-30T16:36:17.013Z,101418.19
2022-10-30T16:38:46.828Z,101415.66
2022-10-30T16:41:13.819Z,101410.50
2022-10-30T16:43:41.778Z,101420.94
2022-10-30T16:46:14.317Z,101421.84
2022-10-30T16:48:54.781Z,101425.44
2022-10-30T16:51:21.579Z,101422.94
2022-10-30T16:53:49.122Z,101423.88
2022-10-30T16:56:24.940Z,101416.78
2022-10-30T16:58:52.787Z,101422.13
2022-10-30T17:01:24.256Z,101427.38
2022-10-30T17:03:50.851Z,101430.06
2022-10-30T17:06:26.469Z,101431.78
2022-10-30T17:08:54.491Z,101425.66
2022-10-30T17:11:35.156Z,101433.56
2022-10-30T17:14:06.923Z,101435.38
2022-10-30T17:16:35.991Z,101429.22
2022-10-30T17:19:31.302Z,101446.81
2022-10-30T17:22:00.079Z,101442.44
2022-10-30T17:24:34.393Z,101445.97
2022-10-30T17:27:03.099Z,101445.91
2022-10-30T17:29:41.720Z,101443.38
2022-10-30T17:32:25.767Z,101442.53
2022-10-30T17:35:02.424Z,101439.88
2022-10-30T17:37:29.271Z,101430.25
2022-10-30T17:39:56.634Z,101442.47
2022-10-30T17:42:23.099Z,101459.19
2022-10-30T17:44:49.594Z,101458.28
2022-10-30T17:47:20.637Z,101453.03
2022-10-30T17:49:47.292Z,101466.16
2022-10-30T17:52:15.986Z,101467.97
2022-10-30T17:54:43.245Z,101469.72
2022-10-30T17:57:11.288Z,101472.34
2022-10-30T17:59:38.337Z,101465.34
2022-10-30T18:02:20.556Z,101475.00
2022-10-30T18:04:47.737Z,101473.25
2022-10-30T18:07:15.573Z,101472.34
2022-10-30T18:09:42.711Z,101467.09
2022-10-30T18:12:16.600Z,101471.47
2022-10-30T18:14:45.500Z,101478.50
2022-10-30T18:17:12.160Z,101471.47
2022-10-30T18:19:38.813Z,101471.50
2022-10-30T18:22:05.296Z,101467.09
2022-10-30T18:24:31.734Z,101476.78
2022-10-30T18:26:58.595Z,101476.78
2022-10-30T18:29:25.141Z,101486.44
2022-10-30T18:31:51.693Z,101475.84
2022-10-30T18:34:21.483Z,101476.78
2022-10-30T18:36:51.051Z,101478.47
2022-10-30T18:39:17.658Z,101489.00
2022-10-30T18:41:45.964Z,101489.88
2022-10-30T18:44:16.118Z,101487.25
2022-10-30T18:46:43.228Z,101477.59
2022-10-30T18:49:12.108Z,101476.72
2022-10-30T18:51:39.724Z,101480.22
2022-10-30T18:54:17.085Z,101484.59
2022-10-30T18:56:44.272Z,101472.31
2022-10-30T18:59:10.872Z,101478.47
2022-10-30T19:01:38.648Z,101480.22
2022-10-30T19:04:10.020Z,101481.97
2022-10-30T19:06:39.133Z,101481.97
2022-10-30T19:09:06.413Z,101474.94
2022-10-30T19:11:36.459Z,101477.53
2022-10-30T19:14:14.503Z,101481.91
2022-10-30T19:16:42.011Z,101485.41
2022-10-30T19:19:11.288Z,101481.94
2022-10-30T19:21:40.078Z,101475.69
2022-10-30T19:24:13.860Z,101471.31
2022-10-30T19:26:42.284Z,101470.47
2022-10-30T19:29:09.317Z,101475.69
2022-10-30T19:31:37.071Z,101479.16
2022-10-30T19:34:04.419Z,101474.78
2022-10-30T19:36:37.305Z,101470.47
2022-10-30T19:39:10.974Z,101475.69
2022-10-30T19:41:38.898Z,101477.44
2022-10-30T19:44:06.391Z,101487.06
2022-10-30T19:46:33.803Z,101485.25
2022-10-30T19:49:03.227Z,101488.78
2022-10-30T19:51:30.422Z,101493.19
2022-10-30T19:53:57.947Z,101479.16
2022-10-30T19:56:25.574Z,101480.88
2022-10-30T19:58:53.780Z,101488.81
2022-10-30T20:01:21.240Z,101481.78
2022-10-30T20:03:48.350Z,101482.63
2022-10-30T20:06:15.858Z,101480.75
2022-10-30T20:08:43.760Z,101472.88
2022-10-30T20:11:11.958Z,101476.34
2022-10-30T20:13:39.144Z,101471.97
2022-10-30T20:16:06.561Z,101478.03
2022-10-30T20:18:35.816Z,101486.78
2022-10-30T20:21:06.299Z,101485.06
2022-10-30T20:23:33.467Z,101494.59
2022-10-30T20:26:24.946Z,101485.00
2022-10-30T20:28:52.349Z,101501.56
2022-10-30T20:31:19.672Z,101501.59
2022-10-30T20:33:46.851Z,101498.19
2022-10-30T20:36:17.752Z,101507.75
2022-10-30T20:38:44.778Z,101502.56
2022-10-30T20:41:23.865Z,101509.53
2022-10-30T20:43:51.203Z,101513.00
2022-10-30T20:46:18.312Z,101506.88
2022-10-30T20:48:45.052Z,101507.69
2022-10-30T20:51:11.889Z,101507.72
2022-10-30T20:53:38.608Z,101502.47
2022-10-30T20:56:05.435Z,101508.41
2022-10-30T20:58:31.883Z,101502.34
2022-10-30T21:00:59.276Z,101505.00
2022-10-30T21:03:26.708Z,101515.31
2022-10-30T21:05:58.585Z,101517.13
2022-10-30T21:08:26.325Z,101517.78
2022-10-30T21:10:52.785Z,101513.56
2022-10-30T21:13:19.271Z,101516.22
2022-10-30T21:15:45.753Z,101512.50
2022-10-30T21:18:13.135Z,101513.44
2022-10-30T21:20:41.145Z,101513.22
2022-10-30T21:23:07.866Z,101516.97
2022-10-30T21:25:34.374Z,101517.81
2022-10-30T21:28:01.514Z,101518.66
2022-10-30T21:30:28.383Z,101525.47
2022-10-30T21:32:54.839Z,101520.59
2022-10-30T21:35:21.366Z,101519.56
2022-10-30T21:37:47.872Z,101517.03
2022-10-30T21:40:14.381Z,101516.13
2022-10-30T21:42:40.908Z,101517.00
2022-10-30T21:45:08.438Z,101516.88
2022-10-30T21:47:34.912Z,101507.13
2022-10-30T21:50:04.806Z,101504.47
2022-10-30T21:52:34.553Z,101506.09
2022-10-30T21:55:00.997Z,101510.63
2022-10-30T21:57:28.855Z,101505.28
2022-10-30T21:59:56.064Z,101509.53
2022-10-30T22:02:24.105Z,101509.41
2022-10-30T22:04:50.579Z,101508.53
2022-10-30T22:07:18.412Z,101498.13
2022-10-30T22:09:45.044Z,101491.91
2022-10-30T22:12:11.519Z,101497.00
2022-10-30T22:14:37.971Z,101497.16
2022-10-30T22:17:04.424Z,101491.06
2022-10-30T22:19:30.858Z,101492.75
2022-10-30T22:21:57.300Z,101501.59
2022-10-30T22:24:23.793Z,101496.22
2022-10-30T22:26:50.254Z,101492.66
2022-10-30T22:29:16.743Z,101503.69
2022-10-30T22:31:43.243Z,101505.50
2022-10-30T22:34:09.670Z,101504.81
2022-10-30T22:36:36.135Z,101499.75
2022-10-30T22:39:12.697Z,101502.28
2022-10-30T22:41:39.603Z,101514.06
2022-10-30T22:44:08.569Z,101502.25
2022-10-30T22:46:36.346Z,101509.94
2022-10-30T22:49:03.084Z,101506.41
2022-10-30T22:51:32.083Z,101499.28
2022-10-30T22:54:01.137Z,101500.28
2022-10-30T22:56:32.718Z,101504.81
2022-10-30T22:59:13.028Z,101507.13
2022-10-30T23:01:40.973Z,101508.81
2022-10-30T23:04:10.259Z,101510.63
2022-10-30T23:06:37.068Z,101513.38
2022-10-30T23:09:07.234Z,101519.50
2022-10-30T23:11:33.787Z,101516.06
2022-10-30T23:14:00.460Z,101515.66
2022-10-30T23:16:27.004Z,101523.50
2022-10-30T23:18:57.986Z,101513.88
2022-10-30T23:21:26.828Z,101517.59
2022-10-30T23:23:53.791Z,101526.19
2022-10-30T23:26:22.796Z,101530.56
2022-10-30T23:28:51.488Z,101521.91
2022-10-30T23:31:21.087Z,101529.47
2022-10-30T23:33:48.725Z,101534.97
2022-10-30T23:36:15.945Z,101540.03
2022-10-30T23:38:42.447Z,101536.44
2022-10-30T23:41:09.249Z,101537.50
2022-10-30T23:43:35.768Z,101556.56
2022-10-30T23:46:02.485Z,101561.03
2022-10-30T23:48:29.311Z,101557.53
2022-10-30T23:50:55.777Z,101543.50
2022-10-30T23:53:22.273Z,101549.69
2022-10-30T23:55:52.798Z,101543.69
2022-10-30T23:58:19.699Z,101547.16
